aviador You're here:

GMTA Decoded Metar

AL HOCIEMA in MOROCCO
Report Time2017-11-25 03:00:00
UTC Time2017-11-25 03:37:02
Flight Rules vfr VFR
Wind300° at 02 kt
W.Decomp.*RWY 35: 1.3 kt HW 1.5 kt LCW
W.Rank300° ranks 6
Current wind is below 300° avg. (6.9)
Visibility9999 m
Phenomena:N/A
Clouds:N/A
Expected CloudBase > 800 ft AGL from Temp-Dew spread
CeilingNone
Temp08°C (ISA -7)
Dew Point06°C (87% RH)
AAT6.4°C
QNH1020 hPa
Density Alt-896 ft
Elevation46 ft
Report Wrong Elevation
Raw Report
GMTA 250300Z 30002KT CAVOK 08/06 Q1020 NOSIG=

Extra information for GMTA:More info

Metar Taf Metar & Taf Last 4 Metars F.Rules Stats Wind Profile Meteogram Temp Stats Airport Information Weather charts Add Link Nearby VenuesMetar ALERT Operation Metar Decoded Social comments